Yuho Maru No.6 — JD3708 — position and weather

sailwx.info

Track history (hours):
 
Tides and Currents Weather Stations Pressure Air Temp Water Temp Dewpoint Dewpoint Depression Visibility Wind Speed Wind Dir Waves Ship Positions

Yuho Maru No.6

Last reported at 2018-Jul-22 06:28 UTC. Time now 2018-Jul-22 06:41 UTC.
Position N 35°25' E 139°39'.

Length 65 m; draft 4.3 m.

Type: Tanker. MMSI: 431005551.

Date/timePositionNaut miles runAvg speedWind from/ knotsBaromVisibWave heightAir tempDewpointWater temp
2018-Jul-22 06:28N 35°25' E 139°39'0 0.0
2018-Jul-22 05:58N 35°25' E 139°39'1 1.6
2018-Jul-22 05:30N 35°24' E 139°40'4 8.5
2018-Jul-22 05:00N 35°28' E 139°42'4 7.6
2018-Jul-22 04:30N 35°31' E 139°45'0 0.0
2018-Jul-21 23:32N 35°31' E 139°45'0 0.0
2018-Jul-21 23:30N 35°31' E 139°45'0 0.6
2018-Jul-21 22:59N 35°31' E 139°45'5 9.6
2018-Jul-21 22:30N 35°31' E 139°51'611.6
2018-Jul-21 21:59N 35°35' E 139°56'2 0.1
2018-Jul-21 04:08N 35°37' E 139°56'411.5
2018-Jul-21 03:46N 35°32' E 139°56'310.8
2018-Jul-21 03:27N 35°30' E 139°59'3 0.6
2018-Jul-20 23:02N 35°28' E 140°01'1 3.0
2018-Jul-20 22:49N 35°29' E 140°01'2 6.6
2018-Jul-20 22:28N 35°30' E 139°58'0 0.3
2018-Jul-20 21:45N 35°29' E 139°58'210.0
2018-Jul-20 21:30N 35°29' E 139°55'610.7
2018-Jul-20 20:59N 35°26' E 139°49'611.7
2018-Jul-20 20:30N 35°22' E 139°45'510.2
2018-Jul-20 20:00N 35°17' E 139°46'611.4
2018-Jul-20 19:30N 35°11' E 139°46'612.2
2018-Jul-20 19:00N 35°05' E 139°44'612.5
2018-Jul-20 18:30N 35°01' E 139°39'612.6
2018-Jul-20 18:00N 34°57' E 139°32'23310.7
2018-Jul-19 20:15N 33°54' E 135°00'412.8
2018-Jul-19 19:55N 33°57' E 134°57'1012.9
2018-Jul-19 19:11N 34°05' E 134°49'1112.9
2018-Jul-19 18:19N 34°13' E 134°41'9 3.6
2018-Jul-19 15:54N 34°17' E 134°31'1011.7
2018-Jul-19 15:03N 34°21' E 134°20'7 0.2
2018-Jul-17 17:11N 34°25' E 134°13'411.8
2018-Jul-17 16:48N 34°23' E 134°18'412.0
2018-Jul-17 16:28N 34°22' E 134°23'612.0
2018-Jul-17 15:59N 34°19' E 134°29'1011.6
2018-Jul-17 15:07N 34°14' E 134°39'111.6
2018-Jul-17 15:00N 34°13' E 134°40'812.1
2018-Jul-17 14:23N 34°08' E 134°46'512.0
2018-Jul-17 13:59N 34°04' E 134°50'612.2
2018-Jul-17 13:30N 33°59' E 134°55'612.3
2018-Jul-17 13:00N 33°55' E 134°59'237 9.9
2018-Jul-16 13:11N 35°05' E 139°34'211.6
2018-Jul-16 13:00N 35°05' E 139°36'611.3
2018-Jul-16 12:30N 35°08' E 139°42'611.1
2018-Jul-16 12:00N 35°13' E 139°46'511.1
2018-Jul-16 11:30N 35°18' E 139°44'510.7
2018-Jul-16 11:01N 35°23' E 139°42'511.0
2018-Jul-16 10:31N 35°27' E 139°47'611.0
2018-Jul-16 10:01N 35°30' E 139°53'7 1.4
2018-Jul-16 04:57N 35°29' E 140°01'4 9.0
2018-Jul-16 04:30N 35°29' E 139°56'1 1.2
2018-Jul-16 03:58N 35°28' E 139°55'0 0.0
2018-Jul-16 03:28N 35°28' E 139°55'0 0.1
2018-Jul-16 02:58N 35°28' E 139°55'0 0.1
2018-Jul-16 02:28N 35°28' E 139°55'0 0.0
2018-Jul-16 01:58N 35°28' E 139°55'0 0.0
2018-Jul-16 01:28N 35°28' E 139°55'0 0.0
2018-Jul-16 00:52N 35°28' E 139°55'0 0.1
2018-Jul-16 00:28N 35°28' E 139°55'0 0.0
2018-Jul-15 23:58N 35°28' E 139°55'0 0.0
2018-Jul-15 23:28N 35°28' E 139°55'0 0.0
2018-Jul-15 22:58N 35°28' E 139°55'0 0.0
2018-Jul-15 22:28N 35°28' E 139°55'0 0.0
2018-Jul-15 21:55N 35°28' E 139°55'0 0.0
2018-Jul-15 21:25N 35°28' E 139°55'0 0.0
2018-Jul-15 20:58N 35°28' E 139°55'0 0.1
2018-Jul-15 20:25N 35°28' E 139°55'0 0.0
2018-Jul-15 19:52N 35°28' E 139°55'0 0.0
2018-Jul-15 19:28N 35°28' E 139°55'0 0.0
2018-Jul-15 18:58N 35°28' E 139°55'0 0.0
2018-Jul-15 18:28N 35°28' E 139°55'0 0.0
2018-Jul-15 17:52N 35°28' E 139°55'0 0.0
2018-Jul-15 17:28N 35°28' E 139°55'0 0.0
2018-Jul-15 16:58N 35°28' E 139°55'0 0.0
2018-Jul-15 16:28N 35°28' E 139°55'0 0.0
2018-Jul-15 15:58N 35°28' E 139°55'0 0.0
2018-Jul-15 15:28N 35°28' E 139°55'0 0.0
2018-Jul-15 14:58N 35°28' E 139°55'0 0.1
2018-Jul-15 14:25N 35°28' E 139°55'0 0.0
2018-Jul-15 13:58N 35°28' E 139°55'0 0.0
2018-Jul-15 13:28N 35°28' E 139°55'0 0.0
2018-Jul-15 12:58N 35°28' E 139°55'0 0.0
2018-Jul-15 12:28N 35°28' E 139°55'0 0.0
2018-Jul-15 11:58N 35°28' E 139°55'0 0.1
2018-Jul-15 11:28N 35°28' E 139°55'0 0.0
2018-Jul-15 10:58N 35°28' E 139°55'0 0.0
2018-Jul-15 09:52N 35°28' E 139°55'0 0.0
2018-Jul-15 09:28N 35°28' E 139°55'0 0.0
2018-Jul-15 08:58N 35°28' E 139°55'3 5.7
2018-Jul-15 08:30N 35°28' E 139°52'713.3
2018-Jul-15 08:00N 35°24' E 139°46'611.8
2018-Jul-15 07:30N 35°18' E 139°45'713.1
2018-Jul-15 07:00N 35°11' E 139°47'612.9
2018-Jul-15 06:30N 35°05' E 139°44'713.4
2018-Jul-15 06:00N 35°01' E 139°38'815.5
2018-Jul-15 05:30N 34°57' E 139°30'20 1.2
2018-Jul-14 12:49N 34°47' E 139°08'1310.7
2018-Jul-14 11:33N 34°56' E 139°21'2 9.4
2018-Jul-14 11:19N 34°57' E 139°23'4 9.3
2018-Jul-14 10:56N 34°59' E 139°26'910.1
2018-Jul-14 10:02N 35°05' E 139°36'011.8
2018-Jul-14 10:00N 35°05' E 139°36'611.8
2018-Jul-14 09:30N 35°08' E 139°42'611.3
2018-Jul-14 09:00N 35°12' E 139°46'510.6
2018-Jul-14 08:30N 35°17' E 139°44'510.9
2018-Jul-14 08:00N 35°23' E 139°42'511.0
2018-Jul-14 07:30N 35°27' E 139°46'611.4
2018-Jul-14 07:00N 35°30' E 139°52'8 2.0
2018-Jul-14 03:02N 35°31' E 140°02'0 0.4
2018-Jul-14 01:51N 35°31' E 140°01'1 0.5
2018-Jul-13 23:34N 35°30' E 140°02'1 2.3
2018-Jul-13 23:15N 35°30' E 140°01'0 0.2
2018-Jul-13 21:40N 35°30' E 140°01'0 0.0
2018-Jul-13 09:22N 35°30' E 140°01'3 8.5
2018-Jul-13 08:57N 35°30' E 139°57'2 0.6
2018-Jul-13 04:47N 35°27' E 139°58'4 0.8
2018-Jul-12 23:51N 35°30' E 140°01'1 0.8
2018-Jul-12 23:00N 35°31' E 140°00'7 0.5
2018-Jul-12 06:54N 35°38' E 139°58'  
Track history (hours):
 
Tides and Currents Weather Stations Pressure Air Temp Water Temp Dewpoint Dewpoint Depression Visibility Wind Speed Wind Dir Waves Ship Positions

Yuho Maru No.6

Last reported at 2018-Jul-22 06:28 UTC. Time now 2018-Jul-22 06:41 UTC.
Position N 35°25' E 139°39'.

Length 65 m; draft 4.3 m.

Type: Tanker. MMSI: 431005551.

Date/timePositionNaut miles runAvg speedWind from/ knotsBaromVisibWave heightAir tempDewpointWater temp
2018-Jul-22 06:28N 35°25' E 139°39'0 0.0
2018-Jul-22 05:58N 35°25' E 139°39'1 1.6
2018-Jul-22 05:30N 35°24' E 139°40'4 8.5
2018-Jul-22 05:00N 35°28' E 139°42'4 7.6
2018-Jul-22 04:30N 35°31' E 139°45'0 0.0
2018-Jul-21 23:32N 35°31' E 139°45'0 0.0
2018-Jul-21 23:30N 35°31' E 139°45'0 0.6
2018-Jul-21 22:59N 35°31' E 139°45'5 9.6
2018-Jul-21 22:30N 35°31' E 139°51'611.6
2018-Jul-21 21:59N 35°35' E 139°56'2 0.1
2018-Jul-21 04:08N 35°37' E 139°56'411.5
2018-Jul-21 03:46N 35°32' E 139°56'310.8
2018-Jul-21 03:27N 35°30' E 139°59'3 0.6
2018-Jul-20 23:02N 35°28' E 140°01'1 3.0
2018-Jul-20 22:49N 35°29' E 140°01'2 6.6
2018-Jul-20 22:28N 35°30' E 139°58'0 0.3
2018-Jul-20 21:45N 35°29' E 139°58'210.0
2018-Jul-20 21:30N 35°29' E 139°55'610.7
2018-Jul-20 20:59N 35°26' E 139°49'611.7
2018-Jul-20 20:30N 35°22' E 139°45'510.2
2018-Jul-20 20:00N 35°17' E 139°46'611.4
2018-Jul-20 19:30N 35°11' E 139°46'612.2
2018-Jul-20 19:00N 35°05' E 139°44'612.5
2018-Jul-20 18:30N 35°01' E 139°39'612.6
2018-Jul-20 18:00N 34°57' E 139°32'23310.7
2018-Jul-19 20:15N 33°54' E 135°00'412.8
2018-Jul-19 19:55N 33°57' E 134°57'1012.9
2018-Jul-19 19:11N 34°05' E 134°49'1112.9
2018-Jul-19 18:19N 34°13' E 134°41'9 3.6
2018-Jul-19 15:54N 34°17' E 134°31'1011.7
2018-Jul-19 15:03N 34°21' E 134°20'7 0.2
2018-Jul-17 17:11N 34°25' E 134°13'411.8
2018-Jul-17 16:48N 34°23' E 134°18'412.0
2018-Jul-17 16:28N 34°22' E 134°23'612.0
2018-Jul-17 15:59N 34°19' E 134°29'1011.6
2018-Jul-17 15:07N 34°14' E 134°39'111.6
2018-Jul-17 15:00N 34°13' E 134°40'812.1
2018-Jul-17 14:23N 34°08' E 134°46'512.0
2018-Jul-17 13:59N 34°04' E 134°50'612.2
2018-Jul-17 13:30N 33°59' E 134°55'612.3
2018-Jul-17 13:00N 33°55' E 134°59'237 9.9
2018-Jul-16 13:11N 35°05' E 139°34'211.6
2018-Jul-16 13:00N 35°05' E 139°36'611.3
2018-Jul-16 12:30N 35°08' E 139°42'611.1
2018-Jul-16 12:00N 35°13' E 139°46'511.1
2018-Jul-16 11:30N 35°18' E 139°44'510.7
2018-Jul-16 11:01N 35°23' E 139°42'511.0
2018-Jul-16 10:31N 35°27' E 139°47'611.0
2018-Jul-16 10:01N 35°30' E 139°53'7 1.4
2018-Jul-16 04:57N 35°29' E 140°01'4 9.0
2018-Jul-16 04:30N 35°29' E 139°56'1 1.2
2018-Jul-16 03:58N 35°28' E 139°55'0 0.0
2018-Jul-16 03:28N 35°28' E 139°55'0 0.1
2018-Jul-16 02:58N 35°28' E 139°55'0 0.1
2018-Jul-16 02:28N 35°28' E 139°55'0 0.0
2018-Jul-16 01:58N 35°28' E 139°55'0 0.0
2018-Jul-16 01:28N 35°28' E 139°55'0 0.0
2018-Jul-16 00:52N 35°28' E 139°55'0 0.1
2018-Jul-16 00:28N 35°28' E 139°55'0 0.0
2018-Jul-15 23:58N 35°28' E 139°55'0 0.0
2018-Jul-15 23:28N 35°28' E 139°55'0 0.0
2018-Jul-15 22:58N 35°28' E 139°55'0 0.0
2018-Jul-15 22:28N 35°28' E 139°55'0 0.0
2018-Jul-15 21:55N 35°28' E 139°55'0 0.0
2018-Jul-15 21:25N 35°28' E 139°55'0 0.0
2018-Jul-15 20:58N 35°28' E 139°55'0 0.1
2018-Jul-15 20:25N 35°28' E 139°55'0 0.0
2018-Jul-15 19:52N 35°28' E 139°55'0 0.0
2018-Jul-15 19:28N 35°28' E 139°55'0 0.0
2018-Jul-15 18:58N 35°28' E 139°55'0 0.0
2018-Jul-15 18:28N 35°28' E 139°55'0 0.0
2018-Jul-15 17:52N 35°28' E 139°55'0 0.0
2018-Jul-15 17:28N 35°28' E 139°55'0 0.0
2018-Jul-15 16:58N 35°28' E 139°55'0 0.0
2018-Jul-15 16:28N 35°28' E 139°55'0 0.0
2018-Jul-15 15:58N 35°28' E 139°55'0 0.0
2018-Jul-15 15:28N 35°28' E 139°55'0 0.0
2018-Jul-15 14:58N 35°28' E 139°55'0 0.1
2018-Jul-15 14:25N 35°28' E 139°55'0 0.0
2018-Jul-15 13:58N 35°28' E 139°55'0 0.0
2018-Jul-15 13:28N 35°28' E 139°55'0 0.0
2018-Jul-15 12:58N 35°28' E 139°55'0 0.0
2018-Jul-15 12:28N 35°28' E 139°55'0 0.0
2018-Jul-15 11:58N 35°28' E 139°55'0 0.1
2018-Jul-15 11:28N 35°28' E 139°55'0 0.0
2018-Jul-15 10:58N 35°28' E 139°55'0 0.0
2018-Jul-15 09:52N 35°28' E 139°55'0 0.0
2018-Jul-15 09:28N 35°28' E 139°55'0 0.0
2018-Jul-15 08:58N 35°28' E 139°55'3 5.7
2018-Jul-15 08:30N 35°28' E 139°52'713.3
2018-Jul-15 08:00N 35°24' E 139°46'611.8
2018-Jul-15 07:30N 35°18' E 139°45'713.1
2018-Jul-15 07:00N 35°11' E 139°47'612.9
2018-Jul-15 06:30N 35°05' E 139°44'713.4
2018-Jul-15 06:00N 35°01' E 139°38'815.5
2018-Jul-15 05:30N 34°57' E 139°30'20 1.2
2018-Jul-14 12:49N 34°47' E 139°08'1310.7
2018-Jul-14 11:33N 34°56' E 139°21'2 9.4
2018-Jul-14 11:19N 34°57' E 139°23'4 9.3
2018-Jul-14 10:56N 34°59' E 139°26'910.1
2018-Jul-14 10:02N 35°05' E 139°36'011.8
2018-Jul-14 10:00N 35°05' E 139°36'611.8
2018-Jul-14 09:30N 35°08' E 139°42'611.3
2018-Jul-14 09:00N 35°12' E 139°46'510.6
2018-Jul-14 08:30N 35°17' E 139°44'510.9
2018-Jul-14 08:00N 35°23' E 139°42'511.0
2018-Jul-14 07:30N 35°27' E 139°46'611.4
2018-Jul-14 07:00N 35°30' E 139°52'8 2.0
2018-Jul-14 03:02N 35°31' E 140°02'0 0.4
2018-Jul-14 01:51N 35°31' E 140°01'1 0.5
2018-Jul-13 23:34N 35°30' E 140°02'1 2.3
2018-Jul-13 23:15N 35°30' E 140°01'0 0.2
2018-Jul-13 21:40N 35°30' E 140°01'0 0.0
2018-Jul-13 09:22N 35°30' E 140°01'3 8.5
2018-Jul-13 08:57N 35°30' E 139°57'2 0.6
2018-Jul-13 04:47N 35°27' E 139°58'4 0.8
2018-Jul-12 23:51N 35°30' E 140°01'1 0.8
2018-Jul-12 23:00N 35°31' E 140°00'7 0.5
2018-Jul-12 06:54N 35°38' E 139°58'  

Dump ship's entire track history